createdAt,value
2022-09-16T00:01:22.403Z,10.29
2022-09-16T00:03:57.125Z,9.79
2022-09-16T00:06:28.882Z,9.82
2022-09-16T00:09:01.038Z,9.87
2022-09-16T00:11:34.776Z,9.77
2022-09-16T00:14:05.311Z,9.62
2022-09-16T00:16:35.449Z,10.50
2022-09-16T00:19:05.585Z,10.23
2022-09-16T00:21:35.572Z,10.57
2022-09-16T00:24:05.912Z,10.50
2022-09-16T00:26:36.015Z,10.87
2022-09-16T00:29:06.081Z,10.53
2022-09-16T00:31:36.170Z,11.06
2022-09-16T00:34:06.255Z,10.58
2022-09-16T00:36:36.182Z,10.18
2022-09-16T00:39:06.322Z,10.70
2022-09-16T00:41:37.751Z,10.50
2022-09-16T00:44:09.120Z,10.64
2022-09-16T00:46:41.880Z,10.69
2022-09-16T00:49:17.535Z,10.43
2022-09-16T00:51:51.099Z,10.63
2022-09-16T00:54:22.279Z,9.97
2022-09-16T00:56:54.769Z,10.15
2022-09-16T00:59:27.723Z,10.63
2022-09-16T01:02:00.420Z,9.70
2022-09-16T01:04:33.467Z,9.87
2022-09-16T01:07:04.189Z,9.42
2022-09-16T01:09:34.786Z,9.87
2022-09-16T01:12:05.178Z,9.74
2022-09-16T01:14:52.531Z,9.67
2022-09-16T01:17:29.125Z,9.64
2022-09-16T01:20:23.940Z,9.60
2022-09-16T01:23:06.553Z,9.25
2022-09-16T01:25:48.679Z,10.21
2022-09-16T01:28:32.163Z,9.42
2022-09-16T01:31:13.431Z,9.32
2022-09-16T01:33:50.084Z,9.65
2022-09-16T01:36:32.543Z,8.95
2022-09-16T01:39:09.277Z,10.00
2022-09-16T01:41:49.220Z,9.83
2022-09-16T01:44:27.110Z,9.99
2022-09-16T01:47:02.520Z,10.05
2022-09-16T01:49:39.984Z,10.19
2022-09-16T01:52:17.577Z,9.87
2022-09-16T01:54:53.284Z,9.48
2022-09-16T01:57:30.500Z,9.62
2022-09-16T02:00:03.949Z,9.90
2022-09-16T02:02:39.659Z,9.63
2022-09-16T02:05:13.737Z,9.30
2022-09-16T02:07:48.355Z,9.08
2022-09-16T02:10:23.986Z,9.20
2022-09-16T02:12:58.128Z,8.37
2022-09-16T02:15:31.010Z,8.37
2022-09-16T02:18:06.401Z,8.68
2022-09-16T02:20:41.003Z,8.39
2022-09-16T02:23:15.009Z,8.34
2022-09-16T02:25:47.610Z,8.73
2022-09-16T02:28:21.621Z,8.71
2022-09-16T02:30:55.634Z,8.28
2022-09-16T02:33:31.920Z,8.57
2022-09-16T02:36:04.499Z,8.29
2022-09-16T02:38:39.894Z,8.59
2022-09-16T02:41:14.658Z,7.84
2022-09-16T02:43:46.218Z,8.50
2022-09-16T02:46:22.384Z,8.24
2022-09-16T02:48:59.200Z,8.16
2022-09-16T02:51:35.246Z,8.58
2022-09-16T02:54:11.697Z,8.13
2022-09-16T02:56:43.389Z,9.07
2022-09-16T02:59:14.153Z,8.40
2022-09-16T03:01:45.429Z,9.08
2022-09-16T03:04:17.555Z,8.65
2022-09-16T03:06:48.241Z,8.76
2022-09-16T03:09:23.836Z,8.66
2022-09-16T03:12:10.059Z,9.23
2022-09-16T03:14:55.178Z,8.41
2022-09-16T03:17:36.560Z,8.94
2022-09-16T03:20:12.803Z,8.49
2022-09-16T03:22:49.758Z,8.34
2022-09-16T03:25:26.356Z,8.82
2022-09-16T03:28:04.138Z,9.08
2022-09-16T03:30:38.076Z,10.24
2022-09-16T03:33:15.062Z,10.13
2022-09-16T03:35:49.134Z,9.69
2022-09-16T03:38:21.067Z,9.80
2022-09-16T03:40:52.195Z,8.98
2022-09-16T03:43:22.310Z,9.32
2022-09-16T03:45:52.555Z,8.63
2022-09-16T03:48:22.564Z,8.93
2022-09-16T03:50:52.534Z,8.92
2022-09-16T03:53:22.516Z,8.54
2022-09-16T03:55:52.501Z,9.34
2022-09-16T03:58:22.545Z,9.18
2022-09-16T04:00:52.594Z,9.55
2022-09-16T04:03:22.647Z,8.80
2022-09-16T04:05:55.515Z,9.50
2022-09-16T04:08:25.557Z,8.75
2022-09-16T04:10:59.884Z,9.06
2022-09-16T04:13:32.473Z,9.29
2022-09-16T04:16:03.580Z,9.21
2022-09-16T04:18:34.692Z,8.49
2022-09-16T04:21:05.059Z,8.76
2022-09-16T04:23:35.104Z,9.22
2022-09-16T04:26:05.788Z,9.60
2022-09-16T04:28:35.824Z,8.97
2022-09-16T04:31:08.286Z,9.87
2022-09-16T04:33:38.890Z,9.68
2022-09-16T04:36:10.808Z,9.92
2022-09-16T04:38:42.097Z,10.16
2022-09-16T04:41:13.239Z,10.19
2022-09-16T04:43:43.152Z,10.18
2022-09-16T04:46:13.420Z,10.64
2022-09-16T04:48:43.503Z,10.37
2022-09-16T04:51:13.701Z,10.66
2022-09-16T04:53:44.937Z,10.54
2022-09-16T04:56:16.813Z,10.37
2022-09-16T04:58:48.256Z,10.29
2022-09-16T05:01:19.347Z,10.72
2022-09-16T05:03:51.022Z,10.70
2022-09-16T05:06:22.205Z,10.53
2022-09-16T05:08:53.599Z,9.27
2022-09-16T05:11:24.962Z,9.79
2022-09-16T05:13:55.283Z,9.24
2022-09-16T05:16:25.461Z,8.99
2022-09-16T05:18:57.310Z,8.96
2022-09-16T05:21:28.304Z,8.70
2022-09-16T05:24:01.406Z,8.07
2022-09-16T05:26:35.265Z,8.68
2022-09-16T05:29:07.061Z,7.60
2022-09-16T05:31:39.017Z,7.62
2022-09-16T05:34:13.366Z,7.23
2022-09-16T05:36:44.322Z,7.34
2022-09-16T05:39:23.282Z,7.28
2022-09-16T05:41:56.797Z,6.70
2022-09-16T05:44:27.781Z,6.77
2022-09-16T05:46:58.130Z,6.91
2022-09-16T05:49:28.245Z,6.84
2022-09-16T05:51:59.104Z,6.96
2022-09-16T05:54:29.137Z,6.69
2022-09-16T05:57:01.246Z,6.25
2022-09-16T05:59:35.301Z,6.65
2022-09-16T06:02:05.460Z,5.99
2022-09-16T06:04:35.657Z,5.93
2022-09-16T06:07:07.301Z,5.86
2022-09-16T06:09:37.283Z,5.87
2022-09-16T06:12:07.754Z,6.02
2022-09-16T06:14:37.965Z,5.96
2022-09-16T06:17:08.024Z,5.87
2022-09-16T06:19:38.080Z,6.05
2022-09-16T06:22:08.115Z,5.77
2022-09-16T06:24:38.059Z,5.67
2022-09-16T06:27:08.692Z,5.48
2022-09-16T06:29:38.858Z,5.43
2022-09-16T06:32:08.831Z,5.13
2022-09-16T06:34:38.867Z,5.04
2022-09-16T06:37:12.667Z,5.55
2022-09-16T06:39:42.697Z,5.54
2022-09-16T06:42:12.782Z,5.44
2022-09-16T06:44:42.789Z,5.53
2022-09-16T06:47:12.764Z,4.74
2022-09-16T06:49:42.749Z,5.26
2022-09-16T06:52:12.765Z,4.93
2022-09-16T06:54:42.807Z,5.53
2022-09-16T06:57:12.856Z,5.16
2022-09-16T06:59:42.855Z,5.59
2022-09-16T07:02:13.385Z,4.73
2022-09-16T07:04:43.657Z,4.71
2022-09-16T07:07:14.438Z,4.69
2022-09-16T07:09:44.635Z,5.44
2022-09-16T07:12:18.931Z,4.86
2022-09-16T07:14:49.955Z,4.15
2022-09-16T07:17:20.010Z,3.83
2022-09-16T07:19:50.013Z,3.69
2022-09-16T07:22:20.415Z,4.37
2022-09-16T07:24:50.765Z,3.79
2022-09-16T07:27:20.794Z,3.64
2022-09-16T07:29:51.138Z,3.30
2022-09-16T07:32:21.403Z,3.03
2022-09-16T07:34:51.361Z,3.00
2022-09-16T07:37:22.129Z,2.75
2022-09-16T07:39:52.200Z,3.06
2022-09-16T07:42:22.835Z,2.84
2022-09-16T07:44:52.789Z,2.96
2022-09-16T07:47:23.215Z,2.91
2022-09-16T07:49:56.096Z,2.76
2022-09-16T07:52:29.380Z,3.33
2022-09-16T07:54:59.393Z,3.14
2022-09-16T07:57:29.626Z,2.93
2022-09-16T07:59:59.740Z,2.91
2022-09-16T08:02:29.979Z,2.97
2022-09-16T08:05:00.258Z,3.07
2022-09-16T08:07:30.292Z,2.39
2022-09-16T08:10:00.318Z,3.24
2022-09-16T08:12:32.430Z,2.65
2022-09-16T08:15:02.760Z,2.62
2022-09-16T08:17:33.599Z,2.92
2022-09-16T08:20:06.045Z,2.72
2022-09-16T08:22:36.364Z,3.21
2022-09-16T08:25:06.912Z,3.06
2022-09-16T08:27:37.480Z,3.33
2022-09-16T08:30:08.279Z,2.72
2022-09-16T08:32:38.362Z,3.26
2022-09-16T08:35:09.406Z,2.76
2022-09-16T08:37:39.450Z,2.80
2022-09-16T08:40:16.333Z,3.60
2022-09-16T08:42:56.611Z,2.43
2022-09-16T08:45:31.833Z,2.89
2022-09-16T08:48:11.688Z,2.54
2022-09-16T08:50:44.064Z,2.63
2022-09-16T08:53:18.829Z,2.73
2022-09-16T08:55:51.409Z,2.74
2022-09-16T08:58:24.048Z,2.80
2022-09-16T09:00:57.877Z,2.56
2022-09-16T09:03:35.835Z,2.56
2022-09-16T09:06:10.283Z,2.27
2022-09-16T09:08:51.261Z,3.59
2022-09-16T09:11:26.243Z,2.47
2022-09-16T09:14:09.717Z,2.57
2022-09-16T09:16:46.128Z,2.17
2022-09-16T09:19:31.561Z,2.73
2022-09-16T09:22:09.466Z,2.51
2022-09-16T09:24:56.576Z,2.20
2022-09-16T09:27:28.891Z,2.35
2022-09-16T09:30:10.801Z,2.55
2022-09-16T09:32:50.975Z,2.18
2022-09-16T09:35:32.692Z,2.72
2022-09-16T09:38:21.621Z,4.15
2022-09-16T09:40:56.760Z,2.73
2022-09-16T09:43:32.758Z,2.82
2022-09-16T09:46:05.828Z,3.31
2022-09-16T09:48:39.296Z,2.75
2022-09-16T09:51:16.397Z,2.65
2022-09-16T09:53:49.951Z,2.84
2022-09-16T09:56:23.942Z,2.36
2022-09-16T09:59:02.256Z,2.48
2022-09-16T10:01:32.542Z,2.38
2022-09-16T10:04:04.265Z,2.75
2022-09-16T10:06:36.882Z,2.47
2022-09-16T10:09:06.933Z,2.69
2022-09-16T10:11:47.366Z,2.75
2022-09-16T10:14:25.535Z,2.16
2022-09-16T10:16:56.416Z,2.26
2022-09-16T10:19:28.540Z,2.46
2022-09-16T10:22:10.918Z,3.26
2022-09-16T10:24:42.293Z,3.07
2022-09-16T10:27:21.607Z,3.51
2022-09-16T10:30:03.620Z,2.94
2022-09-16T10:32:40.917Z,3.03
2022-09-16T10:35:18.984Z,2.73
2022-09-16T10:37:52.353Z,2.70
2022-09-16T10:40:24.115Z,2.36
2022-09-16T10:42:55.469Z,2.73
2022-09-16T10:45:28.474Z,2.29
2022-09-16T10:48:04.903Z,2.31
2022-09-16T10:50:37.270Z,3.05
2022-09-16T10:53:21.401Z,2.64
2022-09-16T10:55:59.616Z,2.69
2022-09-16T10:58:29.830Z,3.11
2022-09-16T11:01:19.400Z,2.92
2022-09-16T11:04:07.291Z,2.86
2022-09-16T11:06:48.242Z,2.60
2022-09-16T11:09:24.098Z,2.86
2022-09-16T11:12:06.501Z,2.65
2022-09-16T11:14:47.410Z,2.58
2022-09-16T11:17:30.343Z,2.50
2022-09-16T11:20:14.041Z,2.47
2022-09-16T11:22:48.905Z,2.75
2022-09-16T11:25:27.227Z,2.15
2022-09-16T11:28:05.834Z,1.99
2022-09-16T11:30:41.737Z,2.62
2022-09-16T11:33:25.188Z,3.12
2022-09-16T11:36:20.806Z,1.89
2022-09-16T11:39:01.929Z,2.18
2022-09-16T11:41:36.785Z,2.53
2022-09-16T11:44:20.763Z,3.06
2022-09-16T11:46:58.074Z,1.85
2022-09-16T11:49:39.384Z,1.72
2022-09-16T11:52:21.875Z,1.55
2022-09-16T11:55:01.738Z,1.90
2022-09-16T11:57:36.196Z,1.82
2022-09-16T12:00:09.605Z,1.86
2022-09-16T12:02:44.776Z,1.60
2022-09-16T12:05:20.226Z,1.59
2022-09-16T12:07:54.300Z,1.79
2022-09-16T12:10:28.090Z,1.84
2022-09-16T12:13:02.627Z,1.64
2022-09-16T12:15:37.095Z,2.93
2022-09-16T12:18:11.839Z,1.74
2022-09-16T12:20:46.759Z,1.78
2022-09-16T12:23:19.540Z,1.61
2022-09-16T12:26:01.687Z,1.91
2022-09-16T12:28:37.520Z,2.00
2022-09-16T12:31:14.760Z,1.78
2022-09-16T12:33:53.170Z,1.86
2022-09-16T12:36:26.801Z,1.84
2022-09-16T12:38:59.297Z,2.23
2022-09-16T12:41:44.660Z,2.14
2022-09-16T12:44:34.297Z,2.01
2022-09-16T12:47:18.412Z,1.66
2022-09-16T12:50:14.230Z,1.74
2022-09-16T12:53:07.920Z,1.75
2022-09-16T12:55:44.792Z,1.63
2022-09-16T12:58:40.282Z,1.35
2022-09-16T13:01:18.500Z,1.52
2022-09-16T13:03:51.138Z,1.50
2022-09-16T13:06:24.734Z,2.17
2022-09-16T13:08:55.612Z,1.84
2022-09-16T13:14:23.288Z,1.65
2022-09-16T13:16:58.382Z,2.10
2022-09-16T13:19:36.521Z,1.78
2022-09-16T13:22:16.222Z,1.50
2022-09-16T13:24:49.664Z,1.56
2022-09-16T13:27:31.272Z,2.76
2022-09-16T13:30:14.619Z,2.54
2022-09-16T13:32:46.942Z,2.46
2022-09-16T13:35:37.462Z,1.71
2022-09-16T13:38:23.069Z,2.61
2022-09-16T13:40:57.587Z,2.34
2022-09-16T13:43:35.901Z,1.49
2022-09-16T13:46:10.961Z,1.44
2022-09-16T13:48:44.752Z,2.70
2022-09-16T13:51:20.909Z,2.13
2022-09-16T13:53:52.277Z,2.02
2022-09-16T13:56:36.778Z,1.26
2022-09-16T13:59:15.900Z,1.32
2022-09-16T14:02:01.638Z,1.55
2022-09-16T14:04:42.697Z,1.39
2022-09-16T14:07:28.015Z,1.62
2022-09-16T14:10:01.720Z,1.42
2022-09-16T14:12:40.131Z,1.96
2022-09-16T14:15:11.928Z,2.15
2022-09-16T14:17:47.693Z,1.45
2022-09-16T14:20:22.696Z,1.34
2022-09-16T14:23:03.305Z,1.38
2022-09-16T14:25:35.013Z,1.67
2022-09-16T14:28:17.520Z,1.62
2022-09-16T14:30:49.388Z,1.70
2022-09-16T14:33:22.709Z,1.59
2022-09-16T14:35:55.570Z,1.53
2022-09-16T14:41:28.066Z,1.62
2022-09-16T14:44:03.837Z,1.77
2022-09-16T14:46:34.219Z,1.61
2022-09-16T14:49:04.394Z,1.63
2022-09-16T14:51:35.728Z,1.83
2022-09-16T14:54:12.579Z,1.96
2022-09-16T14:56:43.372Z,1.87
2022-09-16T14:59:15.981Z,1.91
2022-09-16T15:01:46.242Z,1.79
2022-09-16T15:04:25.381Z,1.72
2022-09-16T15:07:03.635Z,1.86
2022-09-16T15:09:40.138Z,2.00
2022-09-16T15:12:19.588Z,1.74
2022-09-16T15:14:50.625Z,1.77
2022-09-16T15:17:23.043Z,1.66
2022-09-16T15:19:55.932Z,1.97
2022-09-16T15:22:27.431Z,2.47
2022-09-16T15:25:00.066Z,1.95
2022-09-16T15:27:32.376Z,2.25
2022-09-16T15:30:05.929Z,2.37
2022-09-16T15:32:45.542Z,1.97
2022-09-16T15:35:21.172Z,2.04
2022-09-16T15:37:51.750Z,2.16
2022-09-16T15:40:33.794Z,2.17
2022-09-16T15:43:07.094Z,2.98
2022-09-16T15:45:38.803Z,2.79
2022-09-16T15:48:15.019Z,2.57
2022-09-16T15:50:47.698Z,2.42
2022-09-16T15:53:22.061Z,2.08
2022-09-16T15:56:00.121Z,2.20
2022-09-16T15:58:39.971Z,2.02
2022-09-16T16:01:14.829Z,2.92
2022-09-16T16:03:57.082Z,3.50
2022-09-16T16:06:47.611Z,2.12
2022-09-16T16:09:34.709Z,2.49
2022-09-16T16:12:06.824Z,2.50
2022-09-16T16:14:38.351Z,1.95
2022-09-16T16:17:14.389Z,3.12
2022-09-16T16:19:45.858Z,3.10
2022-09-16T16:22:17.740Z,2.12
2022-09-16T16:24:47.918Z,1.86
2022-09-16T16:27:17.834Z,1.84
2022-09-16T16:29:47.850Z,1.76
2022-09-16T16:32:18.201Z,1.73
2022-09-16T16:34:50.122Z,1.95
2022-09-16T16:37:45.013Z,2.64
2022-09-16T16:40:12.398Z,1.89
2022-09-16T16:42:43.847Z,1.95
2022-09-16T16:45:14.839Z,2.76
2022-09-16T16:47:46.340Z,2.21
2022-09-16T16:50:16.396Z,2.46
2022-09-16T16:52:51.129Z,2.50
2022-09-16T16:55:21.231Z,2.23
2022-09-16T16:57:51.273Z,2.48
2022-09-16T17:00:21.802Z,2.68
2022-09-16T17:02:51.766Z,2.61
2022-09-16T17:05:21.907Z,3.24
2022-09-16T17:07:51.893Z,3.81
2022-09-16T17:10:23.205Z,4.57
2022-09-16T17:12:53.227Z,4.61
2022-09-16T17:15:23.327Z,5.05
2022-09-16T17:17:53.320Z,4.57
2022-09-16T17:20:23.543Z,4.16
2022-09-16T17:22:53.974Z,3.67
2022-09-16T17:25:23.957Z,3.42
2022-09-16T17:27:53.942Z,3.56
2022-09-16T17:30:23.940Z,3.53
2022-09-16T17:32:53.909Z,3.30
2022-09-16T17:35:24.583Z,3.51
2022-09-16T17:37:54.607Z,3.32
2022-09-16T17:40:26.719Z,3.83
2022-09-16T17:42:56.770Z,3.98
2022-09-16T17:45:26.833Z,4.00
2022-09-16T17:47:59.048Z,4.45
2022-09-16T17:50:29.134Z,4.51
2022-09-16T17:52:59.177Z,4.54
2022-09-16T17:55:29.210Z,4.45
2022-09-16T17:57:59.337Z,4.58
2022-09-16T18:00:29.680Z,4.47
2022-09-16T18:02:59.733Z,4.62
2022-09-16T18:05:30.306Z,4.92
2022-09-16T18:08:00.433Z,4.78
2022-09-16T18:10:31.136Z,4.58
2022-09-16T18:13:02.901Z,4.71
2022-09-16T18:15:33.132Z,4.95
2022-09-16T18:18:03.244Z,5.07
2022-09-16T18:20:34.576Z,5.19
2022-09-16T18:23:04.649Z,5.14
2022-09-16T18:25:38.600Z,5.57
2022-09-16T18:28:08.740Z,5.44
2022-09-16T18:30:39.202Z,5.65
2022-09-16T18:33:09.641Z,5.44
2022-09-16T18:35:40.000Z,5.33
2022-09-16T18:38:12.900Z,5.17
2022-09-16T18:40:43.194Z,5.08
2022-09-16T18:43:13.221Z,5.35
2022-09-16T18:45:43.333Z,5.17
2022-09-16T18:48:13.386Z,5.41
2022-09-16T18:50:43.622Z,5.66
2022-09-16T18:53:13.636Z,5.94
2022-09-16T18:55:43.782Z,5.29
2022-09-16T18:58:13.843Z,5.07
2022-09-16T19:00:43.932Z,5.25
2022-09-16T19:03:14.885Z,5.17
2022-09-16T19:05:55.182Z,5.05
2022-09-16T19:08:25.346Z,5.31
2022-09-16T19:10:55.522Z,5.39
2022-09-16T19:13:25.562Z,5.18
2022-09-16T19:15:58.569Z,5.26
2022-09-16T19:18:29.604Z,5.33
2022-09-16T19:20:59.694Z,5.36
2022-09-16T19:23:30.078Z,5.92
2022-09-16T19:26:04.232Z,5.82
2022-09-16T19:28:34.291Z,6.10
2022-09-16T19:31:05.741Z,6.26
2022-09-16T19:33:36.622Z,6.90
2022-09-16T19:36:12.319Z,6.26
2022-09-16T19:38:43.158Z,6.58
2022-09-16T19:41:14.257Z,6.40
2022-09-16T19:43:44.490Z,6.89
2022-09-16T19:46:16.169Z,7.07
2022-09-16T19:48:48.784Z,6.49
2022-09-16T19:51:20.738Z,6.18
2022-09-16T19:53:51.852Z,6.46
2022-09-16T19:56:23.372Z,6.17
2022-09-16T19:58:54.585Z,6.29
2022-09-16T20:01:26.175Z,6.00
2022-09-16T20:03:56.917Z,5.82
2022-09-16T20:06:28.445Z,5.80
2022-09-16T20:09:00.876Z,6.12
2022-09-16T20:11:32.563Z,6.15
2022-09-16T20:14:03.866Z,5.77
2022-09-16T20:16:36.764Z,6.44
2022-09-16T20:19:08.767Z,5.88
2022-09-16T20:21:39.757Z,6.20
2022-09-16T20:24:14.526Z,5.89
2022-09-16T20:26:44.716Z,5.70
2022-09-16T20:29:14.860Z,5.92
2022-09-16T20:31:46.185Z,5.33
2022-09-16T20:34:16.769Z,5.38
2022-09-16T20:36:47.054Z,5.72
2022-09-16T20:39:17.157Z,5.68
2022-09-16T20:41:49.944Z,5.82
2022-09-16T20:44:20.955Z,5.28
2022-09-16T20:46:51.389Z,5.70
2022-09-16T20:49:23.125Z,5.36
2022-09-16T20:51:53.218Z,5.37
2022-09-16T20:54:23.275Z,5.26
2022-09-16T20:56:53.436Z,5.44
2022-09-16T20:59:23.487Z,5.71
2022-09-16T21:01:53.804Z,5.47
2022-09-16T21:04:24.088Z,5.29
2022-09-16T21:06:54.172Z,5.05
2022-09-16T21:09:24.367Z,5.08
2022-09-16T21:11:54.532Z,5.22
2022-09-16T21:14:24.615Z,4.79
2022-09-16T21:16:55.021Z,5.00
2022-09-16T21:19:25.137Z,4.59
2022-09-16T21:21:55.542Z,5.53
2022-09-16T21:24:25.549Z,5.47
2022-09-16T21:26:55.707Z,5.15
2022-09-16T21:29:25.892Z,4.85
2022-09-16T21:31:56.320Z,5.11
2022-09-16T21:34:27.086Z,5.07
2022-09-16T21:36:59.097Z,4.53
2022-09-16T21:39:29.567Z,5.02
2022-09-16T21:41:59.540Z,4.52
2022-09-16T21:44:29.646Z,4.59
2022-09-16T21:46:59.639Z,4.87
2022-09-16T21:49:30.549Z,5.05
2022-09-16T21:52:00.699Z,4.84
2022-09-16T21:54:32.372Z,4.66
2022-09-16T21:57:03.331Z,4.95
2022-09-16T21:59:33.394Z,5.53
2022-09-16T22:02:04.036Z,7.01
2022-09-16T22:04:34.128Z,16.23
2022-09-16T22:07:04.251Z,5.02
2022-09-16T22:09:34.330Z,4.63
2022-09-16T22:12:05.111Z,4.65
2022-09-16T22:14:35.021Z,4.54
2022-09-16T22:17:05.422Z,4.87
2022-09-16T22:19:35.514Z,4.86
2022-09-16T22:22:05.615Z,4.79
2022-09-16T22:24:36.080Z,4.80
2022-09-16T22:27:06.177Z,5.06
2022-09-16T22:29:36.181Z,5.18
2022-09-16T22:32:06.405Z,4.93
2022-09-16T22:34:37.149Z,5.20
2022-09-16T22:37:09.390Z,5.14
2022-09-16T22:39:39.430Z,5.08
2022-09-16T22:42:09.969Z,5.25
2022-09-16T22:44:40.028Z,5.35
2022-09-16T22:47:10.832Z,5.68
2022-09-16T22:49:41.491Z,5.38
2022-09-16T22:52:12.051Z,5.50
2022-09-16T22:54:42.454Z,5.64
2022-09-16T22:57:13.322Z,5.67
2022-09-16T22:59:44.322Z,5.49
2022-09-16T23:02:15.573Z,5.79
2022-09-16T23:04:48.135Z,5.66
2022-09-16T23:07:20.209Z,5.68
2022-09-16T23:10:01.125Z,5.88
2022-09-16T23:12:33.165Z,5.88
2022-09-16T23:15:03.483Z,5.82
2022-09-16T23:17:34.091Z,6.57
2022-09-16T23:20:04.415Z,6.06
2022-09-16T23:22:34.551Z,5.79
2022-09-16T23:25:04.918Z,6.08
2022-09-16T23:27:37.286Z,5.95
2022-09-16T23:30:08.361Z,5.99
2022-09-16T23:32:38.614Z,6.07
2022-09-16T23:35:09.187Z,5.76
2022-09-16T23:37:39.222Z,5.85
2022-09-16T23:40:10.593Z,6.11
2022-09-16T23:42:40.647Z,6.02
2022-09-16T23:45:11.026Z,6.18
2022-09-16T23:47:41.229Z,5.98
2022-09-16T23:50:13.944Z,6.27
2022-09-16T23:52:44.424Z,5.96
2022-09-16T23:55:14.872Z,6.50
2022-09-16T23:57:44.865Z,6.16
